Brinnon, Washington
Current Conditions -  °F | °C
As of 10:55 PM on Thursday 27 Nov 2014 (Local Time) from KPWT Reporting Station
Overcast Overcast  
Wind Chill: 52°   Ceiling: 400
Heat Index: 52°   Visibility: 9mi
Dew Point: 52°   Wind: 18mph
Humidity: 100%   Direction: 180°S
Pressure: 29.71"   Gusts: 28mph
Location:  47.68°N, 122.9°W
Report Text: KPWT 280655Z AUTO 18016G24KT 9SM OVC004 11/11 A2971 RMK AO1 P0002
Loading
Personal Weather Stations






























Interactive Weather Map New forecast layout! Learn more

10-Day Weather Forecast

Advertisements
Track Severe Weather on mobile